createdAt,value
2019-02-16T00:03:17.702Z,97973.24
2019-02-16T00:08:25.723Z,97974.70
2019-02-16T00:13:33.029Z,97964.22
2019-02-16T00:18:40.847Z,97962.25
2019-02-16T00:23:48.167Z,97957.55
2019-02-16T00:28:55.555Z,97946.76
2019-02-16T00:34:02.957Z,97955.23
2019-02-16T00:39:10.382Z,97956.09
2019-02-16T00:44:17.974Z,97946.64
2019-02-16T00:49:25.394Z,97941.16
2019-02-16T00:54:33.078Z,97942.25
2019-02-16T00:59:40.384Z,97938.55
2019-02-16T01:04:48.101Z,97914.75
2019-02-16T01:09:55.644Z,97914.58
2019-02-16T01:15:03.017Z,97900.81
2019-02-16T01:20:10.410Z,97902.20
2019-02-16T01:25:18.025Z,97888.80
2019-02-16T01:30:32.381Z,97891.45
2019-02-16T01:35:42.481Z,97885.28
2019-02-16T01:40:53.713Z,97885.51
2019-02-16T01:46:08.646Z,97885.06
2019-02-16T01:51:31.419Z,97879.73
2019-02-16T01:56:33.064Z,97878.85
2019-02-16T02:01:46.450Z,97869.28
2019-02-16T02:07:05.309Z,97861.08
2019-02-16T02:12:24.309Z,97858.03
2019-02-16T02:17:34.967Z,97853.89
2019-02-16T02:22:45.569Z,97846.89
2019-02-16T02:27:52.829Z,97845.19
2019-02-16T02:33:00.065Z,97831.23
2019-02-16T02:38:07.460Z,97840.09
2019-02-16T02:43:15.040Z,97819.63
2019-02-16T02:48:23.571Z,97831.09
2019-02-16T02:53:31.828Z,97820.86
2019-02-16T02:58:39.586Z,97813.06
2019-02-16T03:03:46.827Z,97812.73
2019-02-16T03:08:53.949Z,97818.20
2019-02-16T03:14:01.396Z,97821.22
2019-02-16T03:19:20.588Z,97813.87
2019-02-16T03:24:28.421Z,97811.88
2019-02-16T03:29:36.007Z,97812.61
2019-02-16T03:34:43.387Z,97802.48
2019-02-16T03:39:50.610Z,97795.85
2019-02-16T03:44:58.015Z,97801.73
2019-02-16T03:50:05.391Z,97812.41
2019-02-16T03:55:12.926Z,97805.45
2019-02-16T04:00:20.960Z,97802.08
2019-02-16T04:05:28.398Z,97796.94
2019-02-16T04:10:36.337Z,97793.77
2019-02-16T04:15:44.596Z,97793.69
2019-02-16T09:23:30.213Z,97694.65
2019-02-16T09:28:37.399Z,97689.38
2019-02-16T09:34:29.413Z,97697.11
2019-02-16T09:39:47.671Z,97696.37
2019-02-16T09:45:12.986Z,97705.70
2019-02-16T09:50:22.032Z,97700.86
2019-02-16T09:55:34.238Z,97698.91
2019-02-16T10:00:44.515Z,97711.14
2019-02-16T10:06:34.127Z,97707.20
2019-02-16T10:11:59.372Z,97706.71
2019-02-16T10:17:06.537Z,97701.52
2019-02-16T10:23:05.546Z,97718.75
2019-02-16T10:28:12.754Z,97715.42
2019-02-16T10:33:24.052Z,97718.41
2019-02-16T10:38:48.372Z,97713.23
2019-02-16T10:44:47.368Z,97707.28
2019-02-16T10:49:54.372Z,97700.89
2019-02-16T10:55:09.372Z,97699.80
2019-02-16T11:00:36.792Z,97694.66
2019-02-16T11:05:54.435Z,97689.56
2019-02-16T11:11:04.292Z,97679.42
2019-02-16T11:16:53.757Z,97673.70
2019-02-16T11:22:12.067Z,97677.45
2019-02-16T11:27:23.675Z,97675.42
2019-02-16T11:33:25.864Z,97674.68
2019-02-16T11:38:54.050Z,97668.34
2019-02-16T11:44:13.371Z,97674.94
2019-02-16T11:49:35.586Z,97662.99
2019-02-16T11:55:00.376Z,97667.38
2019-02-16T12:00:25.387Z,97656.16
2019-02-16T12:05:36.934Z,97667.33
2019-02-16T12:10:57.643Z,97658.92
2019-02-16T12:16:06.771Z,97657.94
2019-02-16T12:21:21.237Z,97643.87
2019-02-16T12:26:30.384Z,97640.98
2019-02-16T12:31:42.388Z,97633.13
2019-02-16T12:36:52.475Z,97624.72
2019-02-16T12:42:04.483Z,97613.44
2019-02-16T12:47:16.729Z,97611.05
2019-02-16T12:52:34.961Z,97613.62
2019-02-16T12:57:46.394Z,97603.22
2019-02-16T13:02:58.385Z,97597.85
2019-02-16T13:08:12.638Z,97595.82
2019-02-16T13:13:34.065Z,97594.45
2019-02-16T13:18:48.556Z,97590.45
2019-02-16T13:23:57.473Z,97587.83
2019-02-16T13:29:55.976Z,97596.20
2019-02-16T13:35:05.028Z,97592.86
2019-02-16T13:40:14.062Z,97581.22
2019-02-16T13:46:12.481Z,97575.43
2019-02-16T13:51:36.765Z,97561.17
2019-02-16T13:57:00.960Z,97564.56
2019-02-16T14:02:12.676Z,97555.92
2019-02-16T14:07:20.890Z,97549.58
2019-02-16T14:13:19.395Z,97548.61
2019-02-16T14:18:27.011Z,97546.77
2019-02-16T14:23:34.388Z,97546.55
2019-02-16T14:28:41.913Z,97536.39
2019-02-16T14:33:49.379Z,97544.14
2019-02-16T14:39:01.027Z,97543.59
2019-02-16T14:44:08.430Z,97549.31
2019-02-16T14:49:15.827Z,97533.41
2019-02-16T14:54:23.187Z,97540.88
2019-02-16T14:59:30.740Z,97538.02
2019-02-16T15:04:38.054Z,97537.31
2019-02-16T15:09:45.221Z,97528.77
2019-02-16T15:14:52.664Z,97535.97
2019-02-16T15:19:59.561Z,97532.31
2019-02-16T15:25:18.433Z,97530.79
2019-02-16T15:30:25.826Z,97533.95
2019-02-16T15:35:33.146Z,97538.72
2019-02-16T15:40:40.533Z,97541.72
2019-02-16T15:45:48.043Z,97540.47
2019-02-16T15:50:56.295Z,97544.43
2019-02-16T15:56:10.640Z,97549.41
2019-02-16T16:01:15.572Z,97554.94
2019-02-16T16:06:22.882Z,97553.97
2019-02-16T16:11:42.170Z,97548.45
2019-02-16T16:16:51.108Z,97544.64
2019-02-16T16:22:52.674Z,97552.03
2019-02-16T16:28:07.766Z,97550.02
2019-02-16T16:33:30.122Z,97558.70
2019-02-16T16:39:32.424Z,97555.47
2019-02-16T16:45:38.006Z,97564.57
2019-02-16T16:51:45.987Z,97569.23
2019-02-16T16:57:12.506Z,97577.27
2019-02-16T17:03:20.684Z,97578.38
2019-02-16T17:09:27.675Z,97570.09
2019-02-16T17:14:45.628Z,97582.86
2019-02-16T17:20:35.384Z,97585.80
2019-02-16T17:25:48.320Z,97583.43
2019-02-16T17:31:03.011Z,97595.23
2019-02-16T17:37:07.679Z,97588.80
2019-02-16T17:42:14.775Z,97585.95
2019-02-16T17:48:04.072Z,97579.95
2019-02-16T17:53:22.586Z,97581.09
2019-02-16T17:58:29.836Z,97580.52
2019-02-16T18:03:44.370Z,97585.63
2019-02-16T18:09:27.390Z,97576.28
2019-02-16T18:14:45.694Z,97574.09
2019-02-16T18:19:54.982Z,97572.56
2019-02-16T18:25:08.087Z,97569.80
2019-02-16T18:30:23.065Z,97570.91
2019-02-16T18:35:30.370Z,97564.27
2019-02-16T18:40:52.826Z,97556.63
2019-02-16T18:46:48.034Z,97558.81
2019-02-16T18:52:12.490Z,97555.42
2019-02-16T18:57:21.389Z,97557.61
2019-02-16T19:02:28.367Z,97555.56
2019-02-16T19:07:39.683Z,97552.80
2019-02-16T19:12:49.990Z,97552.17
2019-02-16T19:17:57.056Z,97554.22
2019-02-16T19:23:08.662Z,97551.75
2019-02-16T19:29:22.870Z,97546.95
2019-02-16T19:34:34.643Z,97538.60
2019-02-16T19:39:44.401Z,97545.75
2019-02-16T19:45:02.268Z,97542.57
2019-02-16T19:50:30.440Z,97531.55
2019-02-16T19:56:24.378Z,97535.27
2019-02-16T20:01:34.693Z,97537.28
2019-02-16T20:07:30.875Z,97532.84
2019-02-16T20:12:38.047Z,97540.66
2019-02-16T20:18:03.397Z,97535.45
2019-02-16T20:23:46.614Z,97537.65
2019-02-16T20:29:17.886Z,97534.31
2019-02-16T20:34:43.204Z,97532.94
2019-02-16T20:40:09.085Z,97528.88
2019-02-16T20:45:21.478Z,97527.08
2019-02-16T20:50:31.961Z,97523.09
2019-02-16T20:55:47.032Z,97528.94
2019-02-16T21:00:59.045Z,97528.61
2019-02-16T21:06:24.382Z,97534.38
2019-02-16T21:12:26.374Z,97532.52
2019-02-16T21:17:44.621Z,97540.31
2019-02-16T21:23:04.803Z,97539.98
2019-02-16T21:28:37.605Z,97549.98
2019-02-16T21:33:50.379Z,97544.70
2019-02-16T21:39:03.218Z,97546.83
2019-02-16T21:44:26.821Z,97542.90
2019-02-16T21:49:48.376Z,97540.31
2019-02-16T21:55:00.803Z,97533.98
2019-02-16T22:00:12.930Z,97537.23
2019-02-16T22:05:21.969Z,97527.31
2019-02-16T22:10:46.883Z,97531.13
2019-02-16T22:15:57.590Z,97534.47
2019-02-16T22:21:04.570Z,97536.08
2019-02-16T22:26:11.874Z,97529.84
2019-02-16T22:31:19.363Z,97533.50
2019-02-16T22:36:26.689Z,97521.23
2019-02-16T22:41:33.569Z,97528.85
2019-02-16T22:46:40.966Z,97535.03
2019-02-16T22:51:48.378Z,97536.84
2019-02-16T22:56:55.981Z,97539.11
2019-02-16T23:02:03.387Z,97539.41
2019-02-16T23:07:10.995Z,97539.83
2019-02-16T23:12:18.372Z,97551.52
2019-02-16T23:17:25.699Z,97551.84
2019-02-16T23:22:33.615Z,97541.36
2019-02-16T23:27:40.916Z,97545.60
2019-02-16T23:32:48.386Z,97544.28
2019-02-16T23:37:55.931Z,97534.55
2019-02-16T23:43:02.933Z,97536.51
2019-02-16T23:48:10.386Z,97537.89
2019-02-16T23:53:18.763Z,97542.36
2019-02-16T23:58:26.091Z,97546.32
